YSNW/NOA METAR and TAF weather

Enter ICAO airport designator
Station Type Date Time Source
YSNW METAR 2020/01/26 00:00 UTC NOAA

YSNW 260000Z AUTO 01007KT 9999 // NCD 32/20 Q1010


Station Type Date Time Source
YSNW Decoded METAR 2020/01/26 00:00 UTC NOAA

Nowra Ran Air Station, Australia (YSNW) 34-57S 150-32E 110M
Jan 25, 2020 - 07:00 PM EST / 2020.01.26 0000 UTC
Wind: from the N (010 degrees) at 8 MPH (7 KT):0
Visibility: greater than 7 mile(s):0
Temperature: 89 F (32 C)
Dew Point: 68 F (20 C)
Relative Humidity: 49%
Pressure (altimeter): 29.83 in. Hg (1010 hPa)
ob: YSNW 260000Z AUTO 01007KT 9999 // NCD 32/20 Q1010
cycle: 0

Station Type Date Time Source
YSNW TAF UTC NOAA

Error!

Example: see airport list